createdAt,value
2023-04-16T00:02:15.243Z,101783.03
2023-04-16T00:04:42.288Z,101790.28
2023-04-16T00:07:09.127Z,101786.66
2023-04-16T00:09:35.992Z,101798.38
2023-04-16T00:12:03.666Z,101792.81
2023-04-16T00:14:30.588Z,101786.66
2023-04-16T00:16:57.446Z,101785.84
2023-04-16T00:19:24.305Z,101786.94
2023-04-16T00:21:51.201Z,101792.50
2023-04-16T00:24:18.073Z,101787.22
2023-04-16T00:26:46.433Z,101785.16
2023-04-16T00:29:13.280Z,101786.06
2023-04-16T00:31:40.095Z,101790.53
2023-04-16T00:34:06.894Z,101787.06
2023-04-16T00:36:34.030Z,101794.31
2023-04-16T00:39:00.896Z,101792.59
2023-04-16T00:41:27.772Z,101787.28
2023-04-16T00:43:54.595Z,101789.97
2023-04-16T00:46:23.988Z,101790.97
2023-04-16T00:48:54.210Z,101784.84
2023-04-16T00:51:21.656Z,101785.84
2023-04-16T00:53:49.115Z,101783.22
2023-04-16T00:56:17.506Z,101783.09
2023-04-16T00:58:45.204Z,101782.06
2023-04-16T01:01:14.474Z,101780.34
2023-04-16T01:03:48.448Z,101782.22
2023-04-16T01:06:18.223Z,101778.59
2023-04-16T01:08:47.171Z,101775.91
2023-04-16T01:11:16.046Z,101785.72
2023-04-16T01:13:43.192Z,101786.47
2023-04-16T01:16:12.804Z,101781.97
2023-04-16T01:18:40.070Z,101774.81
2023-04-16T01:21:07.725Z,101769.31
2023-04-16T01:23:34.746Z,101772.91
2023-04-16T01:26:02.518Z,101772.78
2023-04-16T01:28:29.390Z,101773.66
2023-04-16T01:30:56.583Z,101778.13
2023-04-16T01:33:49.915Z,101775.38
2023-04-16T01:36:16.807Z,101777.19
2023-04-16T01:38:45.397Z,101781.66
2023-04-16T01:41:12.189Z,101782.41
2023-04-16T01:43:40.306Z,101781.25
2023-04-16T01:46:31.026Z,101786.38
2023-04-16T01:48:58.493Z,101782.91
2023-04-16T01:51:25.724Z,101791.91
2023-04-16T01:53:52.670Z,101785.66
2023-04-16T01:56:19.560Z,101788.34
2023-04-16T01:58:47.418Z,101783.03
2023-04-16T02:01:16.393Z,101780.09
2023-04-16T02:03:44.507Z,101787.25
2023-04-16T02:06:11.582Z,101787.31
2023-04-16T02:08:38.461Z,101794.53
2023-04-16T02:11:05.350Z,101789.75
2023-04-16T02:13:32.751Z,101784.50
2023-04-16T02:15:59.673Z,101788.84
2023-04-16T02:18:55.989Z,101790.75
2023-04-16T02:21:24.291Z,101792.69
2023-04-16T02:23:51.941Z,101785.59
2023-04-16T02:26:23.938Z,101787.31
2023-04-16T02:28:51.070Z,101786.38
2023-04-16T02:31:21.791Z,101785.50
2023-04-16T02:33:48.842Z,101782.91
2023-04-16T02:36:15.717Z,101783.03
2023-04-16T02:38:42.536Z,101779.38
2023-04-16T02:41:09.370Z,101785.72
2023-04-16T02:43:36.255Z,101795.53
2023-04-16T02:46:04.603Z,101786.50
2023-04-16T02:48:31.579Z,101791.16
2023-04-16T02:50:59.120Z,101786.50
2023-04-16T02:53:26.231Z,101789.03
2023-04-16T02:55:54.942Z,101786.38
2023-04-16T02:58:24.211Z,101792.56
2023-04-16T03:00:52.239Z,101791.72
2023-04-16T03:03:19.878Z,101791.78
2023-04-16T03:05:47.350Z,101792.56
2023-04-16T03:08:14.495Z,101795.25
2023-04-16T03:10:41.763Z,101800.72
2023-04-16T03:13:08.532Z,101804.28
2023-04-16T03:15:35.327Z,101798.75
2023-04-16T03:18:02.379Z,101804.94
2023-04-16T03:20:29.341Z,101811.28
2023-04-16T03:22:57.245Z,101808.72
2023-04-16T03:25:24.099Z,101810.56
2023-04-16T03:27:51.409Z,101807.75
2023-04-16T03:30:18.667Z,101812.22
2023-04-16T03:32:45.586Z,101812.22
2023-04-16T03:35:12.855Z,101805.75
2023-04-16T03:37:39.820Z,101801.38
2023-04-16T03:40:08.350Z,101810.19
2023-04-16T03:42:36.692Z,101806.84
2023-04-16T03:45:04.218Z,101813.09
2023-04-16T03:47:32.240Z,101815.03
2023-04-16T03:50:02.308Z,101803.53
2023-04-16T03:52:29.192Z,101805.34
2023-04-16T03:54:57.087Z,101815.19
2023-04-16T03:57:27.000Z,101824.19
2023-04-16T03:59:57.929Z,101815.19
2023-04-16T04:02:27.695Z,101815.19
2023-04-16T04:04:54.741Z,101820.28
2023-04-16T04:07:21.670Z,101817.53
2023-04-16T04:09:48.554Z,101814.91
2023-04-16T04:12:15.850Z,101822.31
2023-04-16T04:14:44.161Z,101825.97
2023-04-16T04:17:11.040Z,101823.28
2023-04-16T04:19:42.294Z,101824.19
2023-04-16T04:22:14.367Z,101825.81
2023-04-16T04:24:41.262Z,101818.53
2023-04-16T04:27:08.131Z,101820.28
2023-04-16T04:29:35.029Z,101817.72
2023-04-16T04:32:02.071Z,101823.34
2023-04-16T04:34:29.104Z,101821.50
2023-04-16T04:36:59.481Z,101827.69
2023-04-16T04:39:27.828Z,101826.75
2023-04-16T04:41:54.821Z,101832.94
2023-04-16T04:44:21.868Z,101840.06
2023-04-16T04:46:48.721Z,101840.22
2023-04-16T04:49:15.796Z,101834.03
2023-04-16T04:51:42.591Z,101838.47
2023-04-16T04:54:09.650Z,101840.06
2023-04-16T04:56:36.594Z,101850.72
2023-04-16T04:59:03.470Z,101853.34
2023-04-16T05:01:30.508Z,101849.91
2023-04-16T05:03:57.559Z,101852.59
2023-04-16T05:06:24.584Z,101853.41
2023-04-16T05:08:51.375Z,101850.72
2023-04-16T05:11:18.201Z,101849.09
2023-04-16T05:13:45.013Z,101852.72
2023-04-16T05:16:11.873Z,101845.53
2023-04-16T05:18:38.684Z,101850.84
2023-04-16T05:21:05.859Z,101856.09
2023-04-16T05:23:32.760Z,101859.66
2023-04-16T05:25:59.610Z,101856.09
2023-04-16T05:28:26.460Z,101862.44
2023-04-16T05:30:53.319Z,101861.59
2023-04-16T05:33:20.915Z,101865.25
2023-04-16T05:35:47.690Z,101858.91
2023-04-16T05:38:14.526Z,101863.25
2023-04-16T05:40:41.264Z,101866.66
2023-04-16T05:43:08.064Z,101872.84
2023-04-16T05:45:39.611Z,101869.25
2023-04-16T05:48:10.540Z,101872.25
2023-04-16T05:50:38.043Z,101869.69
2023-04-16T05:53:07.856Z,101875.91
2023-04-16T05:55:37.165Z,101875.63
2023-04-16T05:58:06.645Z,101878.28
2023-04-16T06:00:33.774Z,101879.00
2023-04-16T06:03:01.943Z,101887.09
2023-04-16T06:05:29.677Z,101887.91
2023-04-16T06:07:56.807Z,101886.00
2023-04-16T06:10:23.705Z,101888.69
2023-04-16T06:12:50.531Z,101891.25
2023-04-16T06:15:17.532Z,101883.03
2023-04-16T06:17:44.356Z,101888.34
2023-04-16T06:20:12.370Z,101896.50
2023-04-16T06:22:39.254Z,101888.41
2023-04-16T06:25:06.926Z,101895.34
2023-04-16T06:27:33.994Z,101897.28
2023-04-16T06:30:00.918Z,101894.53
2023-04-16T06:32:27.945Z,101903.53
2023-04-16T06:34:56.297Z,101908.16
2023-04-16T06:37:23.104Z,101910.91
2023-04-16T06:39:49.951Z,101908.22
2023-04-16T06:42:16.832Z,101916.97
2023-04-16T06:44:43.709Z,101915.22
2023-04-16T06:47:10.793Z,101918.19
2023-04-16T06:49:38.996Z,101918.19
2023-04-16T06:52:06.305Z,101918.19
2023-04-16T06:54:33.412Z,101923.56
2023-04-16T06:57:00.259Z,101925.19
2023-04-16T06:59:27.096Z,101918.84
2023-04-16T07:01:54.136Z,101924.91
2023-04-16T07:04:21.796Z,101934.69
2023-04-16T07:06:48.661Z,101939.97
2023-04-16T07:09:15.748Z,101942.53
2023-04-16T07:11:42.636Z,101943.22
2023-04-16T07:14:09.587Z,101940.53
2023-04-16T07:16:37.894Z,101940.53
2023-04-16T07:19:05.303Z,101946.78
2023-04-16T07:21:32.458Z,101952.78
2023-04-16T07:23:59.300Z,101953.53
2023-04-16T07:26:26.237Z,101952.50
2023-04-16T07:28:53.061Z,101946.25
2023-04-16T07:31:19.983Z,101958.91
2023-04-16T07:33:46.925Z,101959.72
2023-04-16T07:36:14.130Z,101962.28
2023-04-16T07:38:41.089Z,101957.63
2023-04-16T07:41:08.367Z,101968.25
2023-04-16T07:43:35.577Z,101975.41
2023-04-16T07:46:02.572Z,101979.94
2023-04-16T07:48:30.819Z,101982.53
2023-04-16T07:50:58.033Z,101982.53
2023-04-16T07:53:24.882Z,101978.78
2023-04-16T07:55:51.816Z,101982.13
2023-04-16T07:58:18.733Z,101985.91
2023-04-16T08:00:45.710Z,101989.41
2023-04-16T08:03:12.675Z,101994.66
2023-04-16T08:05:39.813Z,101994.53
2023-04-16T08:08:08.012Z,101998.84
2023-04-16T08:10:34.834Z,101995.28
2023-04-16T08:13:02.106Z,102004.22
2023-04-16T08:15:29.328Z,102009.50
2023-04-16T08:17:56.758Z,102013.06
2023-04-16T08:20:23.694Z,102011.09
2023-04-16T08:22:50.540Z,102011.03
2023-04-16T08:25:17.443Z,102017.28
2023-04-16T08:27:44.284Z,102006.38
2023-04-16T08:30:11.252Z,102008.16
2023-04-16T08:32:38.536Z,102018.03
2023-04-16T08:35:06.009Z,102025.88
2023-04-16T08:37:32.889Z,102017.53
2023-04-16T08:39:59.665Z,102018.03
2023-04-16T08:43:03.726Z,102012.22
2023-04-16T08:45:34.851Z,102020.25
2023-04-16T08:48:05.029Z,102017.63
2023-04-16T08:50:34.813Z,102029.13
2023-04-16T08:53:06.997Z,102032.50
2023-04-16T08:55:46.916Z,102040.22
2023-04-16T08:58:18.783Z,102035.72
2023-04-16T09:00:46.479Z,102037.47
2023-04-16T09:03:13.894Z,102032.94
2023-04-16T09:05:42.701Z,102039.44
2023-04-16T09:08:09.640Z,102040.53
2023-04-16T09:10:36.733Z,102040.53
2023-04-16T09:13:03.623Z,102044.03
2023-04-16T09:15:33.422Z,102047.53
2023-04-16T09:18:01.977Z,102050.81
2023-04-16T09:20:28.995Z,102052.06
2023-04-16T09:22:57.084Z,102050.31
2023-04-16T09:25:25.648Z,102048.63
2023-04-16T09:27:52.663Z,102052.22
2023-04-16T09:30:23.868Z,102056.44
2023-04-16T09:32:53.366Z,102062.41
2023-04-16T09:35:21.473Z,102060.50
2023-04-16T09:37:57.627Z,102067.59
2023-04-16T09:40:27.311Z,102066.44
2023-04-16T09:42:58.549Z,102061.81
2023-04-16T09:45:25.596Z,102063.50
2023-04-16T09:47:52.566Z,102070.59
2023-04-16T09:50:20.616Z,102069.47
2023-04-16T09:52:51.672Z,102070.03
2023-04-16T09:55:27.088Z,102074.16
2023-04-16T09:58:01.068Z,102078.56
2023-04-16T10:00:31.575Z,102078.41
2023-04-16T10:03:08.314Z,102076.56
2023-04-16T10:05:35.313Z,102079.03
2023-04-16T10:08:02.403Z,102076.13
2023-04-16T10:10:30.540Z,102075.78
2023-04-16T10:12:58.088Z,102081.63
2023-04-16T10:15:25.744Z,102076.84
2023-04-16T10:17:54.102Z,102076.97
2023-04-16T10:20:22.757Z,102075.03
2023-04-16T10:22:50.040Z,102077.34
2023-04-16T10:25:17.911Z,102078.53
2023-04-16T10:27:45.891Z,102073.06
2023-04-16T10:30:15.671Z,102072.66
2023-04-16T10:32:43.939Z,102078.78
2023-04-16T10:35:19.074Z,102076.88
2023-04-16T10:37:47.455Z,102078.72
2023-04-16T10:40:27.899Z,102082.84
2023-04-16T10:42:58.235Z,102082.34
2023-04-16T10:45:38.010Z,102085.84
2023-04-16T10:48:10.028Z,102080.09
2023-04-16T10:50:37.942Z,102086.22
2023-04-16T10:53:23.509Z,102084.22
2023-04-16T10:56:02.979Z,102080.06
2023-04-16T10:58:32.072Z,102081.44
2023-04-16T11:01:16.871Z,102079.63
2023-04-16T11:03:47.316Z,102083.13
2023-04-16T11:06:18.254Z,102084.63
2023-04-16T11:08:54.524Z,102078.59
2023-04-16T11:11:22.820Z,102083.63
2023-04-16T11:13:50.023Z,102086.03
2023-04-16T11:16:17.484Z,102077.38
2023-04-16T11:18:51.296Z,102075.47
2023-04-16T11:21:20.200Z,102082.81
2023-04-16T11:23:52.360Z,102079.19
2023-04-16T11:26:30.505Z,102076.75
2023-04-16T11:28:57.727Z,102073.69
2023-04-16T11:31:24.905Z,102075.13
2023-04-16T11:33:51.924Z,102075.09
2023-04-16T11:36:18.985Z,102073.34
2023-04-16T11:38:47.036Z,102074.69
2023-04-16T11:41:21.861Z,102080.84
2023-04-16T11:43:48.807Z,102082.41
2023-04-16T11:46:27.442Z,102087.03
2023-04-16T11:48:57.980Z,102085.31
2023-04-16T11:51:24.879Z,102082.16
2023-04-16T11:53:54.113Z,102081.91
2023-04-16T11:56:36.288Z,102081.13
2023-04-16T11:59:15.559Z,102085.84
2023-04-16T12:01:47.758Z,102081.47
2023-04-16T12:04:20.113Z,102086.88
2023-04-16T12:07:06.057Z,102087.34
2023-04-16T12:09:33.055Z,102081.00
2023-04-16T12:11:59.865Z,102085.63
2023-04-16T12:14:27.087Z,102091.75
2023-04-16T12:16:54.035Z,102090.31
2023-04-16T12:19:21.480Z,102099.25
2023-04-16T12:21:51.151Z,102092.38
2023-04-16T12:24:24.190Z,102102.50
2023-04-16T12:27:03.088Z,102104.75
2023-04-16T12:29:31.390Z,102108.84
2023-04-16T12:31:58.253Z,102105.59
2023-04-16T12:34:46.587Z,102104.72
2023-04-16T12:37:14.898Z,102108.91
2023-04-16T12:39:45.513Z,102097.94
2023-04-16T12:42:14.786Z,102104.47
2023-04-16T12:44:41.636Z,102103.97
2023-04-16T12:47:08.448Z,102108.88
2023-04-16T12:49:37.117Z,102111.53
2023-04-16T12:52:04.640Z,102110.50
2023-04-16T12:54:32.285Z,102111.97
2023-04-16T12:56:59.148Z,102116.97
2023-04-16T12:59:25.980Z,102112.41
2023-04-16T13:01:52.970Z,102116.59
2023-04-16T13:04:20.015Z,102109.59
2023-04-16T13:06:47.541Z,102109.16
2023-04-16T13:09:14.354Z,102113.69
2023-04-16T13:11:41.134Z,102110.63
2023-04-16T13:14:07.922Z,102108.47
2023-04-16T13:16:34.760Z,102112.75
2023-04-16T13:19:01.725Z,102110.22
2023-04-16T13:21:28.594Z,102109.97
2023-04-16T13:23:59.127Z,102108.19
2023-04-16T13:26:26.716Z,102101.91
2023-04-16T13:28:53.612Z,102099.25
2023-04-16T13:31:22.232Z,102108.19
2023-04-16T13:33:50.720Z,102103.56
2023-04-16T13:36:17.717Z,102102.41
2023-04-16T13:38:44.560Z,102103.00
2023-04-16T13:41:11.443Z,102106.94
2023-04-16T13:43:38.360Z,102109.56
2023-04-16T13:46:05.338Z,102108.06
2023-04-16T13:48:32.778Z,102109.69
2023-04-16T13:50:59.575Z,102094.81
2023-04-16T13:53:26.652Z,102101.63
2023-04-16T13:55:53.481Z,102098.16
2023-04-16T13:58:23.337Z,102093.09
2023-04-16T14:00:50.529Z,102092.03
2023-04-16T14:03:17.459Z,102090.97
2023-04-16T14:05:44.413Z,102095.75
2023-04-16T14:08:13.050Z,102090.59
2023-04-16T14:10:39.927Z,102093.97
2023-04-16T14:13:06.800Z,102095.75
2023-04-16T14:15:33.599Z,102096.31
2023-04-16T14:18:01.373Z,102095.44
2023-04-16T14:20:28.246Z,102094.94
2023-04-16T14:22:55.011Z,102088.72
2023-04-16T14:25:21.847Z,102095.63
2023-04-16T14:27:48.960Z,102091.06
2023-04-16T14:30:16.692Z,102103.09
2023-04-16T14:32:43.576Z,102100.97
2023-04-16T14:35:10.578Z,102095.81
2023-04-16T14:37:38.916Z,102102.63
2023-04-16T14:40:08.862Z,102092.53
2023-04-16T14:42:37.319Z,102098.44
2023-04-16T14:45:06.782Z,102098.06
2023-04-16T14:47:37.945Z,102089.44
2023-04-16T14:50:06.255Z,102093.78
2023-04-16T14:52:33.194Z,102100.13
2023-04-16T14:55:00.014Z,102093.44
2023-04-16T14:57:26.816Z,102091.16
2023-04-16T14:59:53.624Z,102093.41
2023-04-16T15:02:20.630Z,102080.44
2023-04-16T15:04:47.750Z,102089.91
2023-04-16T15:07:14.734Z,102083.19
2023-04-16T15:09:41.575Z,102086.91
2023-04-16T15:12:09.250Z,102089.19
2023-04-16T15:14:36.325Z,102084.31
2023-04-16T15:17:03.477Z,102089.19
2023-04-16T15:19:30.392Z,102081.13
2023-04-16T15:21:57.307Z,102075.63
2023-04-16T15:24:24.641Z,102083.63
2023-04-16T15:26:51.543Z,102082.59
2023-04-16T15:29:18.354Z,102089.75
2023-04-16T15:31:45.358Z,102091.00
2023-04-16T15:34:13.269Z,102090.69
2023-04-16T15:36:40.066Z,102096.47
2023-04-16T15:39:06.894Z,102090.69
2023-04-16T15:41:36.288Z,102095.63
2023-04-16T15:44:03.841Z,102097.34
2023-04-16T15:46:30.881Z,102096.50
2023-04-16T15:48:57.745Z,102099.13
2023-04-16T15:51:26.713Z,102095.44
2023-04-16T15:53:53.597Z,102104.00
2023-04-16T15:56:20.597Z,102107.16
2023-04-16T15:58:47.733Z,102107.34
2023-04-16T16:01:14.661Z,102111.53
2023-04-16T16:03:41.676Z,102104.88
2023-04-16T16:06:09.099Z,102106.81
2023-04-16T16:08:37.759Z,102101.31
2023-04-16T16:11:04.888Z,102104.88
2023-04-16T16:13:31.758Z,102106.97
2023-04-16T16:15:58.671Z,102103.66
2023-04-16T16:18:25.559Z,102097.44
2023-04-16T16:20:57.951Z,102103.50
2023-04-16T16:23:25.883Z,102101.81
2023-04-16T16:25:52.698Z,102107.53
2023-04-16T16:28:20.558Z,102108.94
2023-04-16T16:30:47.586Z,102106.47
2023-04-16T16:33:14.668Z,102109.75
2023-04-16T16:35:41.624Z,102109.59
2023-04-16T16:38:08.462Z,102116.78
2023-04-16T16:40:35.487Z,102109.97
2023-04-16T16:43:02.836Z,102113.97
2023-04-16T16:45:30.593Z,102117.63
2023-04-16T16:47:59.037Z,102110.50
2023-04-16T16:50:26.179Z,102119.56
2023-04-16T16:52:53.016Z,102119.78
2023-04-16T16:55:20.964Z,102112.94
2023-04-16T16:57:47.751Z,102118.91
2023-04-16T17:00:15.898Z,102121.84
2023-04-16T17:02:43.262Z,102111.09
2023-04-16T17:05:10.743Z,102117.81
2023-04-16T17:07:37.900Z,102116.09
2023-04-16T17:10:08.542Z,102116.41
2023-04-16T17:12:35.701Z,102118.06
2023-04-16T17:15:03.079Z,102111.47
2023-04-16T17:17:30.921Z,102111.06
2023-04-16T17:19:57.845Z,102116.69
2023-04-16T17:22:24.742Z,102117.53
2023-04-16T17:24:51.575Z,102121.19
2023-04-16T17:27:18.429Z,102113.00
2023-04-16T17:29:45.350Z,102111.97
2023-04-16T17:32:12.228Z,102112.13
2023-04-16T17:34:39.231Z,102105.84
2023-04-16T17:37:06.116Z,102113.25
2023-04-16T17:39:32.986Z,102116.81
2023-04-16T17:42:01.290Z,102120.97
2023-04-16T17:44:28.029Z,102118.25
2023-04-16T17:46:54.977Z,102128.28
2023-04-16T17:49:21.853Z,102122.09
2023-04-16T17:51:49.170Z,102132.19
2023-04-16T17:54:16.038Z,102129.56
2023-04-16T17:56:42.944Z,102132.28
2023-04-16T17:59:09.789Z,102132.44
2023-04-16T18:01:36.736Z,102138.81
2023-04-16T18:04:03.852Z,102133.72
2023-04-16T18:06:30.990Z,102137.56
2023-04-16T18:08:57.829Z,102142.41
2023-04-16T18:11:24.666Z,102147.44
2023-04-16T18:13:53.676Z,102151.41
2023-04-16T18:16:20.784Z,102145.34
2023-04-16T18:18:47.758Z,102151.88
2023-04-16T18:21:14.657Z,102152.75
2023-04-16T18:23:41.542Z,102155.22
2023-04-16T18:26:09.275Z,102148.06
2023-04-16T18:28:36.969Z,102156.56
2023-04-16T18:31:06.596Z,102168.56
2023-04-16T18:33:54.161Z,102162.59
2023-04-16T18:36:21.126Z,102173.72
2023-04-16T18:39:00.198Z,102168.53
2023-04-16T18:41:28.257Z,102162.50
2023-04-16T18:43:55.103Z,102173.31
2023-04-16T18:46:22.061Z,102173.16
2023-04-16T18:48:48.920Z,102171.41
2023-04-16T18:51:16.590Z,102169.50
2023-04-16T18:53:45.586Z,102172.13
2023-04-16T18:56:12.978Z,102177.47
2023-04-16T18:58:39.905Z,102183.69
2023-04-16T19:01:11.144Z,102175.63
2023-04-16T19:03:39.012Z,102179.59
2023-04-16T19:06:06.606Z,102190.00
2023-04-16T19:08:33.657Z,102176.69
2023-04-16T19:11:00.587Z,102181.38
2023-04-16T19:13:27.523Z,102182.97
2023-04-16T19:16:02.055Z,102182.91
2023-04-16T19:18:29.079Z,102183.75
2023-04-16T19:21:02.283Z,102179.47
2023-04-16T19:23:29.641Z,102178.91
2023-04-16T19:25:57.154Z,102179.19
2023-04-16T19:28:25.546Z,102183.94
2023-04-16T19:30:53.818Z,102186.22
2023-04-16T19:33:20.739Z,102192.66
2023-04-16T19:35:47.772Z,102186.50
2023-04-16T19:38:14.791Z,102190.44
2023-04-16T19:40:46.310Z,102194.09
2023-04-16T19:43:13.176Z,102187.75
2023-04-16T19:45:45.197Z,102189.72
2023-04-16T19:48:12.641Z,102199.03
2023-04-16T19:50:41.365Z,102197.41
2023-04-16T19:53:09.114Z,102200.19
2023-04-16T19:55:36.510Z,102195.88
2023-04-16T19:58:06.540Z,102196.00
2023-04-16T20:00:43.120Z,102204.91
2023-04-16T20:03:10.338Z,102196.94
2023-04-16T20:05:37.172Z,102191.72
2023-04-16T20:08:04.217Z,102197.16
2023-04-16T20:10:31.592Z,102193.72
2023-04-16T20:12:58.870Z,102192.25
2023-04-16T20:15:25.962Z,102198.75
2023-04-16T20:17:53.390Z,102201.50
2023-04-16T20:20:22.770Z,102199.97
2023-04-16T20:22:50.920Z,102200.91
2023-04-16T20:25:21.595Z,102199.97
2023-04-16T20:27:48.387Z,102205.63
2023-04-16T20:30:15.439Z,102204.13
2023-04-16T20:32:42.543Z,102206.03
2023-04-16T20:35:11.371Z,102216.97
2023-04-16T20:37:39.190Z,102206.44
2023-04-16T20:40:10.861Z,102202.81
2023-04-16T20:42:37.880Z,102205.16
2023-04-16T20:45:05.614Z,102201.38
2023-04-16T20:47:34.871Z,102197.94
2023-04-16T20:50:02.858Z,102197.41
2023-04-16T20:52:29.763Z,102196.19
2023-04-16T20:54:56.573Z,102199.47
2023-04-16T20:57:23.487Z,102194.47
2023-04-16T20:59:50.431Z,102208.13
2023-04-16T21:02:17.372Z,102200.25
2023-04-16T21:04:44.544Z,102207.53
2023-04-16T21:07:11.520Z,102212.97
2023-04-16T21:09:38.336Z,102208.66
2023-04-16T21:12:05.553Z,102209.59
2023-04-16T21:14:32.365Z,102208.78
2023-04-16T21:16:59.120Z,102213.09
2023-04-16T21:19:25.920Z,102210.28
2023-04-16T21:21:52.743Z,102210.16
2023-04-16T21:24:19.551Z,102212.09
2023-04-16T21:26:46.342Z,102219.44
2023-04-16T21:29:13.311Z,102213.16
2023-04-16T21:31:40.469Z,102214.16
2023-04-16T21:34:07.350Z,102218.81
2023-04-16T21:36:35.069Z,102217.81
2023-04-16T21:39:02.109Z,102215.13
2023-04-16T21:41:28.923Z,102214.16
2023-04-16T21:43:55.756Z,102216.00
2023-04-16T21:46:23.007Z,102213.25
2023-04-16T21:48:49.934Z,102209.03
2023-04-16T21:51:18.053Z,102209.16
2023-04-16T21:53:45.001Z,102202.91
2023-04-16T21:56:11.895Z,102215.69
2023-04-16T21:58:38.724Z,102206.91
2023-04-16T22:01:05.976Z,102202.25
2023-04-16T22:03:34.394Z,102207.66
2023-04-16T22:06:01.489Z,102199.56
2023-04-16T22:08:30.125Z,102194.28
2023-04-16T22:11:02.160Z,102194.38
2023-04-16T22:13:32.452Z,102199.63
2023-04-16T22:16:03.380Z,102196.13
2023-04-16T22:18:33.702Z,102199.78
2023-04-16T22:21:01.047Z,102191.47
2023-04-16T22:23:27.878Z,102195.00
2023-04-16T22:25:56.362Z,102193.25
2023-04-16T22:28:23.612Z,102194.19
2023-04-16T22:30:50.497Z,102205.91
2023-04-16T22:33:17.388Z,102200.53
2023-04-16T22:35:44.309Z,102204.91
2023-04-16T22:38:11.207Z,102205.66
2023-04-16T22:40:38.096Z,102198.25
2023-04-16T22:43:05.296Z,102209.84
2023-04-16T22:45:32.227Z,102209.75
2023-04-16T22:47:59.145Z,102205.28
2023-04-16T22:50:25.976Z,102203.50
2023-04-16T22:52:52.866Z,102207.03
2023-04-16T22:55:19.813Z,102208.66
2023-04-16T22:57:47.497Z,102207.66
2023-04-16T23:00:18.241Z,102206.56
2023-04-16T23:02:45.696Z,102204.78
2023-04-16T23:05:12.768Z,102211.91
2023-04-16T23:07:39.632Z,102210.16
2023-04-16T23:10:08.638Z,102201.28
2023-04-16T23:12:39.202Z,102199.44
2023-04-16T23:15:07.123Z,102214.59
2023-04-16T23:17:35.017Z,102211.97
2023-04-16T23:20:02.476Z,102208.41
2023-04-16T23:22:29.534Z,102210.16
2023-04-16T23:24:56.572Z,102212.06
2023-04-16T23:27:23.475Z,102205.66
2023-04-16T23:29:50.664Z,102206.78
2023-04-16T23:32:17.565Z,102206.09
2023-04-16T23:34:44.399Z,102196.38
2023-04-16T23:37:11.344Z,102199.06
2023-04-16T23:39:38.224Z,102198.00
2023-04-16T23:42:05.108Z,102202.53
2023-04-16T23:44:32.013Z,102197.13
2023-04-16T23:46:59.228Z,102206.34
2023-04-16T23:49:26.167Z,102201.78
2023-04-16T23:51:53.027Z,102197.38
2023-04-16T23:54:20.021Z,102196.63
2023-04-16T23:56:46.935Z,102195.75
2023-04-16T23:59:14.299Z,102199.44
